Lannon, WI (53046)

3:42 PM CST on February 08, 2016 (GMT -0600)
Cobblestone Estates | | Change Station
CLOSE
Current Station
Personal Weather Station
Location: Sussex, WI
Elevation: 953 ft
Nearby Weather Stations

Elev 953 ft 43.14 °N, 88.21 °W | Updated 8 minutes ago

Overcast
Overcast
25.5 °F
Feels Like 26 °F
N
3.0
Wind Variable Wind from NW
Gusts 10.0 mph

Today
High -- | Low -- °F
--% Chance of Precip.
Yesterday
High -- | Low -- °F
Precip. -- in
Pressure 29.67 in
Visibility 10.0 miles
Clouds Scattered Clouds 1700 ft
Overcast 2800 ft
Windchill 26 °F
Dew Point 21 °F
Humidity 83%
Rainfall 0.00 in
Snow Depth Not available.
7:00 AM 5:13 PM
New Moon, 0% visible
METAR KMWC 082045Z 29014KT 10SM SCT017 OVC028 M03/M08 A2967
Pressure 29.67 in
Visibility 10.0 miles
Clouds Scattered Clouds 1700 ft
Overcast 2800 ft
Windchill 26 °F
Dew Point 21 °F
Humidity 83%
Rainfall 0.00 in
Snow Depth Not available.
7:00 AM 5:13 PM
New Moon, 0% visible
METAR KMWC 082045Z 29014KT 10SM SCT017 OVC028 M03/M08 A2967

10-Day Weather Forecast

Almanac

Astronomy

Feb. 08, 2016 Rise Set
Actual Time
Civil Twilight
Nautical Twilight
Astronomical Twilight
Moon
Length of Visible Light
Length of Day
Tomorrow will be .
, % of the Moon is Illuminated

Today's Extremes

State Highs State Lows

Community

WunderPhotos

Upload Photos

1,891,512 photos uploaded!

WunderBlog® & News

Nearby

Air Quality

  Air Quality AQ Index Pollutant
Not available.

Snow Depth

Station Depth Elevation

Earthquake Activity

City Distance Mag. Time & Date
Minimum magnitude displayed is 2.5.

Coastal Water Temperatures

Place Temperature

Stations

Nearby Weather Stations

Station Location Temp. Windchill Dew Point Humidity Wind Precip. Elev Updated Type
                   

Watches & Warnings

There are currently no watches in effect.